Time;durP1;ratioP1;P1;durP2;ratioP2;P2;SDS_P1;SDS_P2;PMS_P1;PMS_P2;Temp;Humidity;BMP_temperature;BMP_pressure;BME280_temperature;BME280_humidity;BME280_pressure;Samples;Min_cycle;Max_cycle;Signal;HPM_P1;HPM_P2
2023/04/06 00:02:10;;;;;;;14.07;12.60;;;9.80;99.90;;;;;;5115839;28;20036;-61
2023/04/06 00:04:37;;;;;;;14.70;13.13;;;9.80;99.90;;;;;;5115757;28;20047;-61
2023/04/06 00:07:04;;;;;;;14.57;13.07;;;9.80;99.90;;;;;;5115615;28;20039;-61
2023/04/06 00:09:30;;;;;;;14.43;12.93;;;9.80;99.90;;;;;;5109687;28;20048;-59
2023/04/06 00:11:57;;;;;;;14.65;13.07;;;9.80;99.90;;;;;;5095135;28;20047;-61
2023/04/06 00:14:24;;;;;;;14.18;12.48;;;9.80;99.90;;;;;;5095740;28;20409;-61
2023/04/06 00:16:51;;;;;;;13.45;12.05;;;9.80;99.90;;;;;;5095630;28;20497;-60
2023/04/06 00:19:18;;;;;;;13.52;12.20;;;9.80;99.90;;;;;;5095381;28;20082;-61
2023/04/06 00:21:45;;;;;;;12.80;11.50;;;9.70;99.90;;;;;;5095143;28;20047;-61
2023/04/06 00:24:12;;;;;;;13.60;12.23;;;9.80;99.90;;;;;;5095342;28;20367;-61
2023/04/06 00:26:38;;;;;;;13.73;11.50;;;9.80;99.90;;;;;;5095531;28;20119;-61
2023/04/06 00:29:05;;;;;;;12.82;11.52;;;9.80;99.90;;;;;;5095324;28;20052;-61
2023/04/06 00:31:33;;;;;;;11.63;10.43;;;9.80;99.90;;;;;;5094963;28;20129;-61
2023/04/06 00:34:00;;;;;;;10.20;9.15;;;9.80;99.90;;;;;;5095098;28;20040;-62
2023/04/06 00:36:26;;;;;;;10.13;9.13;;;9.80;99.90;;;;;;5093365;28;20036;-60
2023/04/06 00:38:53;;;;;;;10.10;9.10;;;9.70;99.90;;;;;;5095098;28;20091;-61
2023/04/06 00:41:20;;;;;;;8.68;7.78;;;9.80;99.90;;;;;;5094803;28;20542;-61
2023/04/06 00:43:47;;;;;;;8.00;7.30;;;9.80;99.90;;;;;;5095170;28;20497;-61
2023/04/06 00:46:14;;;;;;;6.78;6.07;;;9.80;99.90;;;;;;5094306;28;20134;-61
2023/04/06 00:48:41;;;;;;;6.18;5.57;;;9.80;99.90;;;;;;5094998;28;20417;-61
2023/04/06 00:51:07;;;;;;;6.50;4.90;;;9.80;99.90;;;;;;5094786;28;20478;-62
2023/04/06 00:53:34;;;;;;;5.28;4.55;;;9.80;99.90;;;;;;5094499;28;20447;-59
2023/04/06 00:56:01;;;;;;;4.85;4.35;;;9.80;99.90;;;;;;5076620;28;20036;-62
2023/04/06 00:58:37;;;;;;;4.18;3.78;;;9.70;99.90;;;;;;5093605;28;20048;-62
2023/04/06 01:01:06;;;;;;;5.25;4.75;;;9.70;99.90;;;;;;5092894;28;20451;-61
2023/04/06 01:03:34;;;;;;;3.88;3.42;;;9.70;99.90;;;;;;5093098;28;20043;-61
2023/04/06 01:06:01;;;;;;;6.03;3.67;;;9.70;99.90;;;;;;5093566;28;20056;-62
2023/04/06 01:08:35;;;;;;;3.90;3.50;;;9.70;99.90;;;;;;5093198;28;20101;-61
2023/04/06 01:11:21;;;;;;;4.05;3.60;;;9.70;99.90;;;;;;5093288;28;20425;-61
2023/04/06 01:13:50;;;;;;;3.20;2.90;;;9.70;99.90;;;;;;5093680;28;20036;-61
2023/04/06 01:16:25;;;;;;;3.53;2.95;;;9.70;99.90;;;;;;5093006;28;20498;-61
2023/04/06 01:19:02;;;;;;;3.17;2.80;;;9.70;99.90;;;;;;5093104;28;20048;-62
2023/04/06 01:21:31;;;;;;;3.38;2.83;;;9.70;99.90;;;;;;5093124;28;20101;-62
2023/04/06 01:24:12;;;;;;;3.00;2.67;;;9.70;99.90;;;;;;5092767;28;20040;-61
2023/04/06 01:27:02;;;;;;;2.95;2.65;;;9.70;99.90;;;;;;5088653;28;20091;-61
2023/04/06 01:29:41;;;;;;;3.05;2.75;;;9.70;99.90;;;;;;5092628;28;20105;-61
2023/04/06 01:32:09;;;;;;;3.20;2.70;;;9.70;99.90;;;;;;5093055;28;20040;-61
2023/04/06 01:34:45;;;;;;;2.90;2.60;;;9.70;99.90;;;;;;5092948;28;20060;-61
2023/04/06 01:37:12;;;;;;;2.90;2.60;;;9.60;99.90;;;;;;5094239;28;20036;-61
2023/04/06 01:39:39;;;;;;;3.03;2.72;;;9.60;99.90;;;;;;5093824;28;20040;-61
2023/04/06 01:42:07;;;;;;;2.92;2.63;;;9.60;99.90;;;;;;5092536;28;20133;-62
2023/04/06 01:44:37;;;;;;;3.08;2.60;;;9.60;99.90;;;;;;5092296;28;20068;-61
2023/04/06 01:47:09;;;;;;;2.90;2.60;;;9.60;99.90;;;;;;5092156;28;20085;-62
2023/04/06 01:49:36;;;;;;;2.90;2.60;;;9.60;99.90;;;;;;5092700;28;20044;-61
2023/04/06 01:52:04;;;;;;;2.83;2.30;;;9.60;99.90;;;;;;5092125;28;20074;-61
2023/04/06 01:54:31;;;;;;;3.25;2.58;;;9.60;99.90;;;;;;5093532;28;20093;-62
2023/04/06 01:57:11;;;;;;;3.72;2.90;;;9.60;99.90;;;;;;5092791;28;20044;-62
2023/04/06 01:59:45;;;;;;;3.17;2.47;;;9.60;99.90;;;;;;5092571;28;20044;-61
2023/04/06 02:02:27;;;;;;;2.92;2.50;;;9.60;99.90;;;;;;5092056;28;20070;-61
2023/04/06 02:04:59;;;;;;;2.90;2.33;;;9.60;99.90;;;;;;5092782;28;20044;-61
2023/04/06 02:07:26;;;;;;;2.63;2.25;;;9.60;99.90;;;;;;5092138;28;20140;-59
2023/04/06 02:09:55;;;;;;;2.85;2.20;;;9.60;99.90;;;;;;5092604;28;20044;-62
2023/04/06 02:12:27;;;;;;;2.63;1.95;;;9.60;99.90;;;;;;5092084;28;20055;-59
2023/04/06 02:14:54;;;;;;;2.13;1.92;;;9.60;99.90;;;;;;5092589;28;20051;-61
2023/04/06 02:17:21;;;;;;;2.28;1.73;;;9.60;99.90;;;;;;5092099;28;20036;-62
2023/04/06 02:19:48;;;;;;;2.40;1.75;;;9.60;99.90;;;;;;5092130;28;20077;-61
2023/04/06 02:22:15;;;;;;;1.90;1.70;;;9.60;99.90;;;;;;5091824;28;20490;-61
2023/04/06 02:24:42;;;;;;;2.20;1.60;;;9.60;99.90;;;;;;5095140;28;20040;-61
2023/04/06 02:27:10;;;;;;;2.88;1.70;;;9.60;99.90;;;;;;5097410;28;20040;-62
2023/04/06 02:29:36;;;;;;;2.00;1.60;;;9.60;99.90;;;;;;5097112;28;20058;-61
2023/04/06 02:32:03;;;;;;;2.92;1.80;;;9.60;99.90;;;;;;5096256;28;20051;-62
2023/04/06 02:34:31;;;;;;;2.30;1.63;;;9.60;99.90;;;;;;5095712;28;20087;-61
2023/04/06 02:36:59;;;;;;;2.00;1.63;;;9.60;99.90;;;;;;5095648;28;20040;-61
2023/04/06 02:39:26;;;;;;;2.10;1.80;;;9.60;99.90;;;;;;5095929;28;20474;-60
2023/04/06 02:41:53;;;;;;;2.50;1.90;;;9.60;99.90;;;;;;5097257;28;20036;-60
2023/04/06 02:44:23;;;;;;;2.42;1.95;;;9.60;99.90;;;;;;5095742;28;20097;-62
2023/04/06 02:46:50;;;;;;;3.00;2.20;;;9.60;99.90;;;;;;5096636;28;20082;-61
2023/04/06 02:49:17;;;;;;;2.80;2.17;;;9.60;99.90;;;;;;5097285;28;20044;-61
2023/04/06 02:51:44;;;;;;;2.30;2.10;;;9.60;99.90;;;;;;5097398;28;20044;-62
2023/04/06 02:54:22;;;;;;;2.17;1.92;;;9.60;99.90;;;;;;5095733;28;20040;-62
2023/04/06 02:56:49;;;;;;;3.33;2.05;;;9.60;99.90;;;;;;5095343;28;20040;-61
2023/04/06 02:59:16;;;;;;;2.15;1.63;;;9.60;99.90;;;;;;5095222;28;20036;-61
2023/04/06 03:01:51;;;;;;;;;;;9.60;99.90;;;;;;5096345;28;20528;-64
2023/04/06 03:04:19;;;;;;;1.90;1.60;;;9.60;99.90;;;;;;5096638;28;19927;-62
2023/04/06 03:06:46;;;;;;;1.95;1.70;;;9.60;99.90;;;;;;5095578;28;20070;-61
2023/04/06 03:09:22;;;;;;;2.20;1.40;;;9.60;99.90;;;;;;5095562;28;20079;-60
2023/04/06 03:11:49;;;;;;;2.00;1.45;;;9.60;99.90;;;;;;5095186;28;20052;-61
2023/04/06 03:14:21;;;;;;;1.88;1.10;;;9.60;99.90;;;;;;5095279;28;20132;-62
2023/04/06 03:16:48;;;;;;;1.50;0.98;;;9.60;99.90;;;;;;5095300;28;20040;-59
2023/04/06 03:19:19;;;;;;;1.83;1.20;;;9.60;99.90;;;;;;5079153;28;20046;-61
2023/04/06 03:21:47;;;;;;;1.20;0.70;;;9.60;99.90;;;;;;5095265;28;20512;-62
2023/04/06 03:24:15;;;;;;;1.30;0.75;;;9.60;99.90;;;;;;5096392;28;20093;-62
2023/04/06 03:26:42;;;;;;;1.55;0.85;;;9.60;99.90;;;;;;5095323;28;20139;-62
2023/04/06 03:29:09;;;;;;;1.50;0.70;;;9.60;99.90;;;;;;5094959;28;20098;-61
2023/04/06 03:31:36;;;;;;;1.10;0.63;;;9.60;99.90;;;;;;5096128;28;20047;-61
2023/04/06 03:34:22;;;;;;;1.13;0.60;;;9.60;99.90;;;;;;5095026;28;20382;-61
2023/04/06 03:36:49;;;;;;;1.85;0.60;;;9.60;99.90;;;;;;5095791;28;20036;-61
2023/04/06 03:39:29;;;;;;;1.40;0.70;;;9.60;99.90;;;;;;5094109;28;20462;-61
2023/04/06 03:41:57;;;;;;;1.20;0.60;;;9.70;99.90;;;;;;5094449;28;20491;-60
2023/04/06 03:44:46;;;;;;;1.20;0.60;;;9.70;99.90;;;;;;5096113;28;20139;-62
2023/04/06 03:47:13;;;;;;;1.40;0.80;;;9.70;99.90;;;;;;5094752;28;20056;-61
2023/04/06 03:49:40;;;;;;;1.85;0.90;;;9.70;99.90;;;;;;5078137;28;20040;-59
2023/04/06 03:52:10;;;;;;;1.10;0.80;;;9.70;99.90;;;;;;5094274;28;20046;-61
2023/04/06 03:54:36;;;;;;;1.75;1.00;;;9.70;99.90;;;;;;5095767;28;20093;-61
2023/04/06 03:57:03;;;;;;;1.85;1.25;;;9.70;99.90;;;;;;5094220;28;20400;-61
2023/04/06 03:59:30;;;;;;;1.52;1.30;;;9.70;99.90;;;;;;5095790;28;20036;-61
2023/04/06 04:01:57;;;;;;;2.03;1.40;;;9.70;99.90;;;;;;5095354;28;20036;-61
2023/04/06 04:04:24;;;;;;;1.90;1.70;;;9.80;99.90;;;;;;5094326;28;20047;-59
2023/04/06 04:06:50;;;;;;;2.60;1.85;;;9.70;99.90;;;;;;5095857;28;20062;-61
2023/04/06 04:09:17;;;;;;;2.10;1.80;;;9.70;99.90;;;;;;5094128;28;20040;-62
2023/04/06 04:11:44;;;;;;;2.80;2.28;;;9.80;99.90;;;;;;5095180;28;20402;-60
2023/04/06 04:14:11;;;;;;;4.07;2.40;;;9.80;99.90;;;;;;5094187;28;20036;-61
2023/04/06 04:16:39;;;;;;;2.78;2.53;;;9.80;99.90;;;;;;5095758;28;20532;-59
2023/04/06 04:19:06;;;;;;;3.22;2.92;;;9.80;99.90;;;;;;5093902;28;20059;-61
2023/04/06 04:21:33;;;;;;;3.28;2.97;;;9.80;99.90;;;;;;5094934;28;20487;-61
2023/04/06 04:24:06;;;;;;;3.88;3.05;;;9.80;99.90;;;;;;5093791;28;20059;-61
2023/04/06 04:26:35;;;;;;;3.75;3.45;;;9.80;99.90;;;;;;5093954;28;20068;-61
2023/04/06 04:29:02;;;;;;;4.10;3.70;;;9.90;99.90;;;;;;5095234;28;20115;-62
2023/04/06 04:31:29;;;;;;;3.90;3.55;;;9.90;99.90;;;;;;5093851;28;20051;-61
2023/04/06 04:34:00;;;;;;;4.78;3.83;;;9.90;99.90;;;;;;5093710;28;20089;-61
2023/04/06 04:36:30;;;;;;;4.07;3.75;;;9.90;99.90;;;;;;5093555;28;20131;-59
2023/04/06 04:39:01;;;;;;;4.07;3.67;;;9.90;99.90;;;;;;5093207;28;20071;-61
2023/04/06 04:41:31;;;;;;;4.97;4.03;;;9.90;99.90;;;;;;5093312;28;20138;-62
2023/04/06 04:43:59;;;;;;;4.70;4.30;;;9.90;99.90;;;;;;5093811;28;20078;-60
2023/04/06 04:46:26;;;;;;;4.38;3.97;;;9.90;99.90;;;;;;5093425;28;20611;-61
2023/04/06 04:48:53;;;;;;;4.75;3.92;;;9.90;99.90;;;;;;5092444;28;20098;-60
2023/04/06 04:51:20;;;;;;;5.00;4.60;;;9.90;99.90;;;;;;5093029;28;20484;-60
2023/04/06 04:53:56;;;;;;;4.40;4.00;;;9.90;99.90;;;;;;5093309;28;20048;-61
2023/04/06 04:56:28;;;;;;;5.28;4.78;;;10.00;99.90;;;;;;5093622;28;20097;-61
2023/04/06 04:59:03;;;;;;;4.80;4.40;;;10.00;99.90;;;;;;5093296;28;20063;-61
2023/04/06 05:01:34;;;;;;;5.10;4.60;;;10.00;99.90;;;;;;5093591;28;20071;-61
2023/04/06 05:04:20;;;;;;;4.80;4.30;;;10.00;99.90;;;;;;5093379;28;20482;-62
2023/04/06 05:06:47;;;;;;;5.40;4.60;;;10.00;99.90;;;;;;5093478;28;20089;-61
2023/04/06 05:09:14;;;;;;;4.63;4.22;;;10.00;99.90;;;;;;5092945;28;20133;-61
2023/04/06 05:11:42;;;;;;;6.35;4.55;;;10.00;99.90;;;;;;5076334;28;20044;-62
2023/04/06 05:14:09;;;;;;;4.60;4.20;;;10.00;99.90;;;;;;5094126;28;20044;-62
2023/04/06 05:16:36;;;;;;;4.32;3.92;;;10.00;99.90;;;;;;5092801;28;20040;-60
2023/04/06 05:19:03;;;;;;;5.78;4.68;;;10.00;99.90;;;;;;5093025;28;20044;-60
2023/04/06 05:21:38;;;;;;;5.13;4.37;;;10.00;99.90;;;;;;5092617;28;20067;-61
2023/04/06 05:24:06;;;;;;;5.47;4.50;;;10.10;99.90;;;;;;5092671;28;20100;-61
2023/04/06 05:26:33;;;;;;;5.15;4.65;;;10.10;99.90;;;;;;5092726;28;20074;-61
2023/04/06 05:29:06;;;;;;;5.05;4.55;;;10.10;99.90;;;;;;5092581;28;20040;-62
2023/04/06 05:31:36;;;;;;;5.90;5.28;;;10.10;99.90;;;;;;5094340;28;20036;-57
2023/04/06 05:34:02;;;;;;;5.40;4.70;;;10.10;99.90;;;;;;5092478;28;20048;-60
2023/04/06 05:36:33;;;;;;;6.03;5.28;;;10.10;99.90;;;;;;5092713;28;20562;-61
2023/04/06 05:39:05;;;;;;;6.95;5.60;;;10.10;99.90;;;;;;5092546;28;20505;-62
2023/04/06 05:41:41;;;;;;;5.80;5.22;;;10.10;99.90;;;;;;5092748;28;20055;-61
2023/04/06 05:44:09;;;;;;;7.40;5.50;;;10.10;99.90;;;;;;5092682;28;20048;-61
2023/04/06 05:46:38;;;;;;;7.32;5.82;;;10.10;99.90;;;;;;5092020;28;20076;-60
2023/04/06 05:49:09;;;;;;;6.68;5.97;;;10.10;99.90;;;;;;5092490;28;20055;-61
2023/04/06 05:51:36;;;;;;;7.47;5.88;;;10.20;99.90;;;;;;5092325;28;20044;-60
2023/04/06 05:54:03;;;;;;;6.50;5.55;;;10.10;99.90;;;;;;5093471;28;20040;-61
2023/04/06 05:56:31;;;;;;;6.45;5.78;;;10.20;99.90;;;;;;5092315;28;20044;-61
2023/04/06 05:59:00;;;;;;;7.22;6.07;;;10.10;99.90;;;;;;5092060;28;20447;-62
2023/04/06 06:01:29;;;;;;;6.85;6.10;;;10.20;99.90;;;;;;5092674;28;20052;-60
2023/04/06 06:03:55;;;;;;;6.90;6.20;;;10.20;99.90;;;;;;5092290;28;20474;-62
2023/04/06 06:06:26;;;;;;;7.18;6.47;;;10.10;99.90;;;;;;5092273;28;20537;-62
2023/04/06 06:09:07;;;;;;;7.65;6.43;;;10.10;99.90;;;;;;5092301;28;20048;-61
2023/04/06 06:11:40;;;;;;;7.28;6.57;;;10.10;99.90;;;;;;5092686;28;20044;-61
2023/04/06 06:14:08;;;;;;;7.95;7.15;;;10.10;99.90;;;;;;5092061;28;20139;-62
2023/04/06 06:16:38;;;;;;;8.00;7.15;;;10.10;99.90;;;;;;5092221;28;20047;-61
2023/04/06 06:19:07;;;;;;;6.45;5.85;;;10.20;99.90;;;;;;5092671;28;20482;-61
2023/04/06 06:21:34;;;;;;;8.00;6.47;;;10.20;99.90;;;;;;5092010;28;20047;-62
2023/04/06 06:24:03;;;;;;;6.80;5.97;;;10.20;99.90;;;;;;5092104;28;20044;-61
2023/04/06 06:26:31;;;;;;;8.98;6.20;;;10.30;99.90;;;;;;5092057;28;20078;-60
2023/04/06 06:28:59;;;;;;;6.55;5.95;;;10.30;99.90;;;;;;5091918;28;20064;-60
2023/04/06 06:31:26;;;;;;;6.63;5.93;;;10.30;99.90;;;;;;5091981;28;20126;-60
2023/04/06 06:33:53;;;;;;;6.18;5.57;;;10.30;99.90;;;;;;5092227;28;20475;-62
2023/04/06 06:36:20;;;;;;;6.63;6.03;;;10.40;99.90;;;;;;5092280;28;20435;-60
2023/04/06 06:38:47;;;;;;;6.28;5.57;;;10.40;99.90;;;;;;5092364;28;20144;-61
2023/04/06 06:41:17;;;;;;;5.82;5.20;;;10.40;99.90;;;;;;5091666;28;20043;-60
2023/04/06 06:43:44;;;;;;;7.35;5.18;;;10.40;99.90;;;;;;5091839;28;20036;-61
2023/04/06 06:46:11;;;;;;;7.03;5.07;;;10.50;99.90;;;;;;5092786;28;20082;-60
2023/04/06 06:48:39;;;;;;;5.75;5.00;;;10.50;99.90;;;;;;5091665;28;20056;-61
2023/04/06 06:51:06;;;;;;;5.38;4.88;;;10.60;99.90;;;;;;5092891;28;20066;-59
2023/04/06 06:53:33;;;;;;;6.38;4.72;;;10.60;99.90;;;;;;5093199;28;20475;-61
2023/04/06 06:56:00;;;;;;;5.43;4.75;;;10.60;99.90;;;;;;5092058;28;20075;-60
2023/04/06 06:58:27;;;;;;;7.18;4.70;;;10.70;99.90;;;;;;5091808;28;20394;-61
2023/04/06 07:00:54;;;;;;;6.97;5.22;;;10.80;99.90;;;;;;5093126;28;20063;-61
2023/04/06 07:03:21;;;;;;;6.30;4.70;;;10.80;99.90;;;;;;5091238;28;20093;-60
2023/04/06 07:05:52;;;;;;;5.88;5.10;;;10.90;99.90;;;;;;5091775;28;20048;-60
2023/04/06 07:08:20;;;;;;;5.72;4.60;;;10.90;99.90;;;;;;5091595;28;20048;-62
2023/04/06 07:10:47;;;;;;;8.30;5.45;;;10.90;99.90;;;;;;5093954;28;20036;-61
2023/04/06 07:13:20;;;;;;;6.10;5.03;;;10.90;99.90;;;;;;5094982;28;20414;-62
2023/04/06 07:15:48;;;;;;;7.35;5.30;;;10.90;99.90;;;;;;5095257;28;20048;-61
2023/04/06 07:18:14;;;;;;;6.25;5.07;;;10.90;99.90;;;;;;5096520;28;20093;-62
2023/04/06 07:20:41;;;;;;;6.32;5.40;;;11.00;99.90;;;;;;5096084;28;20055;-61
2023/04/06 07:23:08;;;;;;;5.35;4.80;;;11.00;99.90;;;;;;5094976;28;20036;-61
2023/04/06 07:25:35;;;;;;;5.57;4.47;;;11.10;99.90;;;;;;5096203;28;20044;-61
2023/04/06 07:28:02;;;;;;;6.22;4.65;;;11.20;99.90;;;;;;5095078;28;20471;-62
2023/04/06 07:30:29;;;;;;;4.85;4.43;;;11.20;99.90;;;;;;5094926;28;20430;-61
2023/04/06 07:32:59;;;;;;;9.07;4.75;;;11.30;99.90;;;;;;5078540;28;20040;-61
2023/04/06 07:35:27;;;;;;;19.75;5.78;;;11.40;99.90;;;;;;5095162;28;20505;-61
2023/04/06 07:37:54;;;;;;;4.95;3.92;;;11.50;99.90;;;;;;5095115;28;20036;-61
2023/04/06 07:40:21;;;;;;;5.82;3.58;;;11.60;99.90;;;;;;5095935;28;20115;-62
2023/04/06 07:42:48;;;;;;;4.07;3.10;;;11.70;99.90;;;;;;5094633;28;20066;-61
2023/04/06 07:45:16;;;;;;;3.53;2.70;;;11.70;99.90;;;;;;5096016;28;20040;-61
2023/04/06 07:47:42;;;;;;;3.85;2.60;;;11.60;99.90;;;;;;5131416;27;20051;-61
2023/04/06 07:50:09;;;;;;;8.20;2.53;;;11.60;99.90;;;;;;5114621;28;20078;-62
2023/04/06 07:52:36;;;;;;;3.55;2.47;;;11.60;99.90;;;;;;5114708;28;20036;-60
2023/04/06 07:55:06;;;;;;;3.47;2.00;;;11.60;99.90;;;;;;5114486;28;20044;-61
2023/04/06 07:57:33;;;;;;;3.30;2.28;;;11.50;99.90;;;;;;5115947;28;20120;-60
2023/04/06 08:00:00;;;;;;;4.18;2.00;;;11.50;99.90;;;;;;5116066;28;20042;-61
2023/04/06 08:02:37;;;;;;;4.50;1.88;;;11.50;99.90;;;;;;5115880;28;20046;-59
2023/04/06 08:05:04;;;;;;;2.58;1.50;;;11.50;99.90;;;;;;5115682;28;20486;-60
2023/04/06 08:07:31;;;;;;;5.22;1.75;;;11.40;99.90;;;;;;5115748;28;20555;-61
2023/04/06 08:09:57;;;;;;;3.35;1.63;;;11.40;99.90;;;;;;5114119;28;20043;-60
2023/04/06 08:12:24;;;;;;;6.30;1.65;;;11.40;99.90;;;;;;5114212;28;20458;-60
2023/04/06 08:14:51;;;;;;;4.85;1.88;;;11.30;99.90;;;;;;5114283;28;20039;-60
2023/04/06 08:17:18;;;;;;;3.42;1.73;;;11.30;99.90;;;;;;5115750;28;20101;-60
2023/04/06 08:19:45;;;;;;;4.53;1.48;;;11.40;99.90;;;;;;5115956;28;20071;-63
2023/04/06 08:22:12;;;;;;;5.25;1.48;;;11.40;99.90;;;;;;5115971;28;20074;-59
2023/04/06 08:24:38;;;;;;;7.22;1.90;;;11.30;99.90;;;;;;5115531;28;20074;-61
2023/04/06 08:27:05;;;;;;;7.72;2.38;;;11.20;99.90;;;;;;5115350;28;20035;-60
2023/04/06 08:29:32;;;;;;;6.55;1.42;;;11.20;99.90;;;;;;5114191;28;20051;-61
2023/04/06 08:31:59;;;;;;;9.18;1.95;;;11.10;99.90;;;;;;5115321;28;20062;-62
2023/04/06 08:34:26;;;;;;;5.63;1.58;;;11.10;99.90;;;;;;5115294;28;20039;-61
2023/04/06 08:36:53;;;;;;;6.35;1.77;;;11.10;99.90;;;;;;5104297;28;20421;-61
2023/04/06 08:39:25;;;;;;;9.23;1.83;;;11.10;99.90;;;;;;5097057;28;20115;-61
2023/04/06 08:41:52;;;;;;;8.93;2.08;;;11.10;99.90;;;;;;5094613;28;20054;-62
2023/04/06 08:44:19;;;;;;;7.97;1.90;;;11.10;99.90;;;;;;5106914;28;20043;-62
2023/04/06 08:46:45;;;;;;;8.52;2.55;;;11.20;99.90;;;;;;5114801;28;20124;-62
2023/04/06 08:49:12;;;;;;;5.80;1.75;;;11.20;99.90;;;;;;5108574;28;20089;-62
2023/04/06 08:51:40;;;;;;;10.55;2.03;;;11.30;99.90;;;;;;5094580;28;20433;-61
2023/04/06 08:54:06;;;;;;;8.02;2.42;;;11.40;99.90;;;;;;5094510;28;20047;-60
2023/04/06 08:56:34;;;;;;;9.50;2.58;;;11.40;99.90;;;;;;5113507;28;20035;-59
2023/04/06 08:59:01;;;;;;;9.88;2.20;;;11.50;99.90;;;;;;5114864;28;20087;-59
2023/04/06 09:01:27;;;;;;;7.55;1.95;;;11.50;99.90;;;;;;5115286;28;20040;-61
2023/04/06 09:03:54;;;;;;;9.45;2.60;;;11.60;99.90;;;;;;5099675;28;20030;-63
2023/04/06 09:06:22;;;;;;;8.25;2.08;;;11.60;99.90;;;;;;5094143;28;20043;-62
2023/04/06 09:08:48;;;;;;;11.68;2.50;;;11.70;99.90;;;;;;5093718;28;20044;-58
2023/04/06 09:11:15;;;;;;;8.02;2.40;;;11.70;99.90;;;;;;5094450;28;20043;-60
2023/04/06 09:13:42;;;;;;;7.15;2.15;;;11.70;99.90;;;;;;5093724;28;20044;-59
2023/04/06 09:16:09;;;;;;;6.47;1.85;;;11.80;99.90;;;;;;5094497;28;20471;-60
2023/04/06 09:18:36;;;;;;;8.05;2.22;;;11.90;99.90;;;;;;5094585;28;20036;-61
2023/04/06 09:21:02;;;;;;;8.75;2.22;;;11.90;99.90;;;;;;5105373;28;20039;-60
2023/04/06 09:23:29;;;;;;;7.97;2.00;;;11.90;99.90;;;;;;5114928;28;20039;-61
2023/04/06 09:25:56;;;;;;;11.48;2.28;;;12.00;99.90;;;;;;5112335;28;20044;-61
2023/04/06 09:28:23;;;;;;;7.35;2.10;;;12.00;99.90;;;;;;5094475;28;20059;-61
2023/04/06 09:30:49;;;;;;;6.65;2.22;;;12.00;99.90;;;;;;5094248;28;20055;-62
2023/04/06 09:33:16;;;;;;;7.55;2.03;;;12.00;99.90;;;;;;5096490;28;20047;-60
2023/04/06 09:35:43;;;;;;;8.68;2.20;;;12.00;99.90;;;;;;5114754;28;20435;-59
2023/04/06 09:38:10;;;;;;;10.40;2.65;;;12.10;99.90;;;;;;5113904;28;20126;-62
2023/04/06 09:40:36;;;;;;;9.65;2.05;;;12.10;99.90;;;;;;5094922;28;20071;-59
2023/04/06 09:43:13;;;;;;;9.93;2.65;;;12.10;99.90;;;;;;5094247;28;20036;-60
2023/04/06 09:45:40;;;;;;;9.02;2.63;;;12.10;99.90;;;;;;5094535;28;20119;-60
2023/04/06 09:48:07;;;;;;;8.70;2.30;;;12.10;99.90;;;;;;5114457;28;20077;-60
2023/04/06 09:50:34;;;;;;;9.43;2.13;;;12.00;99.90;;;;;;5113766;28;20554;-59
2023/04/06 09:53:00;;;;;;;11.70;2.50;;;11.90;99.90;;;;;;5100280;28;20036;-62
2023/04/06 09:55:27;;;;;;;10.13;2.53;;;11.90;99.90;;;;;;5093883;28;20032;-61
2023/04/06 09:57:54;;;;;;;12.50;2.53;;;11.90;99.90;;;;;;5097818;28;20035;-61
2023/04/06 10:00:21;;;;;;;9.98;2.60;;;11.90;99.90;;;;;;5113893;28;20078;-62
2023/04/06 10:02:47;;;;;;;12.00;3.00;;;11.90;99.90;;;;;;5113934;28;20039;-60
2023/04/06 10:05:14;;;;;;;9.10;2.22;;;11.90;99.90;;;;;;5096928;28;20110;-61
2023/04/06 10:07:41;;;;;;;14.82;8.75;;;11.90;99.90;;;;;;5093863;28;20048;-61
2023/04/06 10:10:24;;;;;;;9.13;2.35;;;12.00;99.90;;;;;;5099445;28;20027;-61
2023/04/06 10:12:51;;;;;;;8.35;2.78;;;12.10;99.90;;;;;;5113999;28;20490;-62
2023/04/06 10:15:18;;;;;;;9.23;2.58;;;12.30;99.90;;;;;;5114100;28;20039;-61
2023/04/06 10:17:48;;;;;;;10.02;2.55;;;12.50;99.90;;;;;;5109411;28;20486;-58
2023/04/06 10:20:15;;;;;;;8.85;2.22;;;12.60;99.90;;;;;;5093099;28;20048;-61
2023/04/06 10:22:42;;;;;;;7.97;2.05;;;12.60;99.90;;;;;;5092799;28;20485;-61
2023/04/06 10:25:08;;;;;;;10.23;2.33;;;12.40;99.90;;;;;;5107716;28;20028;-59
2023/04/06 10:27:35;;;;;;;7.95;2.63;;;12.50;99.90;;;;;;5113984;28;20126;-61
2023/04/06 10:30:02;;;;;;;6.47;2.05;;;12.50;99.90;;;;;;5113504;28;20082;-62
2023/04/06 10:32:29;;;;;;;9.63;2.35;;;12.60;99.90;;;;;;5113971;28;20064;-63
2023/04/06 10:34:56;;;;;;;10.50;2.20;;;12.70;99.90;;;;;;5103064;28;20495;-61
2023/04/06 10:37:23;;;;;;;11.82;2.55;;;12.70;99.90;;;;;;5092814;28;20093;-62
2023/04/06 10:39:54;;;;;;;7.05;2.03;;;12.80;99.90;;;;;;5091900;28;20043;-63
2023/04/06 10:42:21;;;;;;;13.05;2.50;;;13.00;99.90;;;;;;5091899;28;20083;-60
2023/04/06 10:44:49;;;;;;;6.95;2.00;;;13.10;99.90;;;;;;5091741;28;20123;-61
2023/04/06 10:47:15;;;;;;;6.32;1.75;;;13.30;99.90;;;;;;5095083;28;20055;-62
2023/04/06 10:49:42;;;;;;;9.30;2.10;;;13.30;99.90;;;;;;5095644;28;20052;-62
2023/04/06 10:52:09;;;;;;;7.30;1.88;;;13.40;99.90;;;;;;5095760;28;20040;-63
2023/04/06 10:54:36;;;;;;;7.72;2.00;;;13.30;99.90;;;;;;5097197;28;20471;-62
2023/04/06 10:57:03;;;;;;;8.95;1.80;;;13.20;99.90;;;;;;5097218;28;20044;-61
2023/04/06 10:59:29;;;;;;;6.20;1.55;;;13.20;99.90;;;;;;5096741;28;20123;-62
2023/04/06 11:01:56;;;;;;;5.10;1.50;;;13.20;99.90;;;;;;5096475;28;20431;-62
2023/04/06 11:04:23;;;;;;;6.50;2.03;;;13.10;99.90;;;;;;5104968;28;20122;-63
2023/04/06 11:06:50;;;;;;;5.10;1.45;;;13.20;99.90;;;;;;5116873;28;20067;-61
2023/04/06 11:09:17;;;;;;;2.90;1.35;;;13.20;99.90;;;;;;5117041;28;20563;-63
2023/04/06 11:11:44;;;;;;;5.25;1.50;;;13.30;99.90;;;;;;5116889;28;20100;-63
2023/04/06 11:14:11;;;;;;;5.57;1.55;;;13.40;99.90;;;;;;5117398;28;20151;-62
2023/04/06 11:16:37;;;;;;;4.15;1.75;;;13.40;99.90;;;;;;5117135;28;20032;-63
2023/04/06 11:19:04;;;;;;;4.07;1.40;;;13.50;99.90;;;;;;5116574;28;20099;-60
2023/04/06 11:21:32;;;;;;;6.05;1.63;;;13.40;99.90;;;;;;5115697;28;20043;-63
2023/04/06 11:23:59;;;;;;;5.05;1.75;;;13.60;99.90;;;;;;5116793;28;20075;-60
2023/04/06 11:26:26;;;;;;;3.65;1.25;;;13.80;99.90;;;;;;5117033;28;20047;-62
2023/04/06 11:28:53;;;;;;;4.93;1.40;;;14.00;99.90;;;;;;5116496;28;20043;-62
2023/04/06 11:31:19;;;;;;;3.83;1.55;;;14.00;99.90;;;;;;5116493;28;20047;-63
2023/04/06 11:33:46;;;;;;;4.18;1.70;;;14.00;99.90;;;;;;5116747;28;20048;-62
2023/04/06 11:36:13;;;;;;;4.35;1.42;;;14.00;99.90;;;;;;5116668;28;20437;-62
2023/04/06 11:38:42;;;;;;;4.35;1.40;;;13.70;99.90;;;;;;5116712;28;20040;-62
2023/04/06 11:41:09;;;;;;;4.22;1.25;;;13.70;99.90;;;;;;5115582;28;20096;-63
2023/04/06 11:43:35;;;;;;;5.30;1.70;;;13.90;99.90;;;;;;5116027;28;20039;-62
2023/04/06 11:46:02;;;;;;;6.97;1.90;;;14.10;99.90;;;;;;5116107;28;20381;-63
2023/04/06 11:48:29;;;;;;;5.50;1.70;;;14.20;99.90;;;;;;5116646;28;20127;-62
2023/04/06 11:50:57;;;;;;;7.47;1.98;;;14.30;99.90;;;;;;5116445;28;20043;-62
2023/04/06 11:53:24;;;;;;;3.67;1.52;;;14.30;99.90;;;;;;5114791;28;20448;-60
2023/04/06 11:55:50;;;;;;;5.30;1.65;;;14.30;99.90;;;;;;5115698;28;20492;-62
2023/04/06 11:58:17;;;;;;;7.85;1.35;;;14.20;99.90;;;;;;5115494;28;20040;-60
2023/04/06 12:00:45;;;;;;;5.00;1.17;;;14.10;99.90;;;;;;5116052;28;20118;-60
2023/04/06 12:03:13;;;;;;;5.55;1.40;;;14.00;99.90;;;;;;5115890;28;20065;-60
2023/04/06 12:05:40;;;;;;;4.60;1.77;;;13.90;99.90;;;;;;5097251;28;20101;-60
2023/04/06 12:08:07;;;;;;;4.55;1.60;;;13.90;99.90;;;;;;5096003;28;20059;-60
2023/04/06 12:10:33;;;;;;;4.32;1.30;;;13.80;99.90;;;;;;5095275;28;20036;-61
2023/04/06 12:13:00;;;;;;;6.80;1.55;;;13.70;99.90;;;;;;5095554;28;20043;-60
2023/04/06 12:15:27;;;;;;;6.40;1.77;;;13.60;99.90;;;;;;5095495;28;20036;-60
2023/04/06 12:17:54;;;;;;;2.65;1.17;;;13.60;99.90;;;;;;5095495;28;20101;-60
2023/04/06 12:20:21;;;;;;;5.68;1.80;;;13.70;99.90;;;;;;5095025;28;20044;-60
2023/04/06 12:22:53;;;;;;;7.07;1.50;;;13.70;99.90;;;;;;5095572;28;20063;-59
2023/04/06 12:25:20;;;;;;;4.68;1.40;;;13.80;99.90;;;;;;5105747;28;20051;-58
2023/04/06 12:27:46;;;;;;;4.30;1.35;;;13.90;99.90;;;;;;5094364;28;20048;-60
2023/04/06 12:30:13;;;;;;;6.32;1.27;;;13.90;99.90;;;;;;5094370;28;20493;-58
2023/04/06 12:32:40;;;;;;;3.17;1.10;;;13.90;99.90;;;;;;5094378;28;20521;-59
2023/04/06 12:35:08;;;;;;;3.65;0.95;;;14.00;99.90;;;;;;5103721;28;20052;-58
2023/04/06 12:37:36;;;;;;;5.10;1.27;;;14.00;99.90;;;;;;5113367;28;20062;-61
2023/04/06 12:40:04;;;;;;;5.07;1.25;;;14.00;99.90;;;;;;5114883;28;20039;-58
2023/04/06 12:42:30;;;;;;;4.35;1.00;;;14.00;99.90;;;;;;5111434;28;20031;-59
2023/04/06 12:44:57;;;;;;;5.82;1.35;;;14.10;99.90;;;;;;5094441;28;20040;-59
2023/04/06 12:47:26;;;;;;;3.92;1.13;;;14.20;99.90;;;;;;5093940;28;20052;-60
2023/04/06 12:49:53;;;;;;;4.75;0.88;;;14.30;99.90;;;;;;5094163;28;20048;-60
2023/04/06 12:52:20;;;;;;;2.53;0.98;;;14.40;99.90;;;;;;5094206;28;20044;-59
2023/04/06 12:54:47;;;;;;;2.72;1.25;;;14.30;99.90;;;;;;5092806;28;20039;-60
2023/04/06 12:57:16;;;;;;;4.32;1.20;;;14.30;99.90;;;;;;5093991;28;20044;-58